sensor_id;sensor_type;location;lat;lon;timestamp;pressure;altitude;pressure_sealevel;temperature;humidity
21300;BME280;10809;49.476;11.016;2022-09-16T00:00:41;97630.56;;;14.33;66.87
21300;BME280;10809;49.476;11.016;2022-09-16T00:03:16;97635.88;;;14.33;66.50
21300;BME280;10809;49.476;11.016;2022-09-16T00:05:49;97632.28;;;14.34;66.83
21300;BME280;10809;49.476;11.016;2022-09-16T00:08:20;97630.44;;;14.35;66.74
21300;BME280;10809;49.476;11.016;2022-09-16T00:10:51;97633.09;;;14.35;66.80
21300;BME280;10809;49.476;11.016;2022-09-16T00:13:22;97631.28;;;14.35;66.45
21300;BME280;10809;49.476;11.016;2022-09-16T00:15:52;97628.63;;;14.35;66.60
21300;BME280;10809;49.476;11.016;2022-09-16T00:18:22;97635.75;;;14.35;66.71
21300;BME280;10809;49.476;11.016;2022-09-16T00:20:54;97627.78;;;14.35;66.75
21300;BME280;10809;49.476;11.016;2022-09-16T00:23:25;97628.63;;;14.35;66.85
21300;BME280;10809;49.476;11.016;2022-09-16T00:25:55;97634.81;;;14.36;66.51
21300;BME280;10809;49.476;11.016;2022-09-16T00:28:26;97634.81;;;14.36;66.52
21300;BME280;10809;49.476;11.016;2022-09-16T00:31:00;97623.31;;;14.35;66.96
21300;BME280;10809;49.476;11.016;2022-09-16T00:33:31;97627.66;;;14.36;66.47
21300;BME280;10809;49.476;11.016;2022-09-16T00:36:09;97633.84;;;14.37;66.44
21300;BME280;10809;49.476;11.016;2022-09-16T00:38:41;97631.16;;;14.37;66.74
21300;BME280;10809;49.476;11.016;2022-09-16T00:41:15;97631.28;;;14.35;66.27
21300;BME280;10809;49.476;11.016;2022-09-16T00:43:58;97632.28;;;14.34;66.62
21300;BME280;10809;49.476;11.016;2022-09-16T00:46:37;97625.13;;;14.35;66.12
21300;BME280;10809;49.476;11.016;2022-09-16T00:49:21;97629.63;;;14.34;66.36
21300;BME280;10809;49.476;11.016;2022-09-16T00:51:58;97627.06;;;14.33;66.32
21300;BME280;10809;49.476;11.016;2022-09-16T00:54:29;97628.88;;;14.32;66.34
21300;BME280;10809;49.476;11.016;2022-09-16T00:57:01;97621.03;;;14.31;66.12
21300;BME280;10809;49.476;11.016;2022-09-16T00:59:34;97628.28;;;14.29;65.91
21300;BME280;10809;49.476;11.016;2022-09-16T01:02:12;97625.75;;;14.27;66.09
21300;BME280;10809;49.476;11.016;2022-09-16T01:04:53;97630.38;;;14.25;66.35
21300;BME280;10809;49.476;11.016;2022-09-16T01:07:29;97623.31;;;14.24;65.95
21300;BME280;10809;49.476;11.016;2022-09-16T01:10:00;97619.97;;;14.22;65.84
21300;BME280;10809;49.476;11.016;2022-09-16T01:12:32;97624.56;;;14.20;66.04
21300;BME280;10809;49.476;11.016;2022-09-16T01:15:03;97625.66;;;14.18;66.14
21300;BME280;10809;49.476;11.016;2022-09-16T01:17:59;97618.63;;;14.17;66.02
21300;BME280;10809;49.476;11.016;2022-09-16T01:20:55;97623.13;;;14.16;66.25
21300;BME280;10809;49.476;11.016;2022-09-16T01:23:59;97623.13;;;14.16;66.26
21300;BME280;10809;49.476;11.016;2022-09-16T01:32:52;97624.06;;;14.15;66.11
21300;BME280;10809;49.476;11.016;2022-09-16T01:35:28;97623.38;;;14.13;66.28
21300;BME280;10809;49.476;11.016;2022-09-16T01:38:53;97621.66;;;14.12;66.25
21300;BME280;10809;49.476;11.016;2022-09-16T01:41:46;97619.84;;;14.13;66.18
21300;BME280;10809;49.476;11.016;2022-09-16T01:44:29;97625.31;;;14.11;66.28
21300;BME280;10809;49.476;11.016;2022-09-16T01:47:14;97624.56;;;14.09;66.48
21300;BME280;10809;49.476;11.016;2022-09-16T01:52:45;97626.41;;;14.09;66.19
21300;BME280;10809;49.476;11.016;2022-09-16T01:55:22;97619.38;;;14.08;66.17
21300;BME280;10809;49.476;11.016;2022-09-16T01:57:58;97623.88;;;14.07;66.22
21300;BME280;10809;49.476;11.016;2022-09-16T02:00:32;97633.66;;;14.07;65.98
21300;BME280;10809;49.476;11.016;2022-09-16T02:03:06;97624.94;;;14.05;65.95
21300;BME280;10809;49.476;11.016;2022-09-16T02:05:43;97625.91;;;14.04;66.11
21300;BME280;10809;49.476;11.016;2022-09-16T02:08:25;97625.06;;;14.03;66.06
21300;BME280;10809;49.476;11.016;2022-09-16T02:10:59;97625.06;;;14.03;65.96
21300;BME280;10809;49.476;11.016;2022-09-16T02:13:44;97620.72;;;14.02;66.25
21300;BME280;10809;49.476;11.016;2022-09-16T02:18:56;97624.25;;;14.03;66.30
21300;BME280;10809;49.476;11.016;2022-09-16T02:21:33;97620.72;;;14.02;66.05
21300;BME280;10809;49.476;11.016;2022-09-16T02:24:10;97620.84;;;14.01;66.06
21300;BME280;10809;49.476;11.016;2022-09-16T02:26:51;97619.97;;;14.00;66.27
21300;BME280;10809;49.476;11.016;2022-09-16T02:29:25;97621.69;;;14.01;66.07
21300;BME280;10809;49.476;11.016;2022-09-16T02:31:59;97619.97;;;14.00;65.95
21300;BME280;10809;49.476;11.016;2022-09-16T02:34:35;97624.47;;;14.00;66.01
21300;BME280;10809;49.476;11.016;2022-09-16T02:37:10;97627.16;;;14.00;65.75
21300;BME280;10809;49.476;11.016;2022-09-16T02:39:46;97631.59;;;13.99;65.70
21300;BME280;10809;49.476;11.016;2022-09-16T02:42:18;97630.75;;;13.99;66.17
21300;BME280;10809;49.476;11.016;2022-09-16T02:44:49;97629.94;;;13.98;65.89
21300;BME280;10809;49.476;11.016;2022-09-16T02:47:30;97623.75;;;13.98;65.81
21300;BME280;10809;49.476;11.016;2022-09-16T02:50:11;97623.88;;;13.96;65.88
21300;BME280;10809;49.476;11.016;2022-09-16T02:53:13;97625.69;;;13.96;65.83
21300;BME280;10809;49.476;11.016;2022-09-16T02:56:01;97619.53;;;13.95;65.76
21300;BME280;10809;49.476;11.016;2022-09-16T02:58:32;97625.81;;;13.94;66.09
21300;BME280;10809;49.476;11.016;2022-09-16T03:01:02;97618.91;;;13.92;65.52
21300;BME280;10809;49.476;11.016;2022-09-16T03:03:33;97618.06;;;13.91;65.65
21300;BME280;10809;49.476;11.016;2022-09-16T03:08:44;97621.81;;;13.89;65.80
21300;BME280;10809;49.476;11.016;2022-09-16T03:17:22;97617.44;;;13.88;66.05
21300;BME280;10809;49.476;11.016;2022-09-16T03:22:51;97620.34;;;13.85;65.69
21300;BME280;10809;49.476;11.016;2022-09-16T03:26:14;97624.00;;;13.84;65.68
21300;BME280;10809;49.476;11.016;2022-09-16T03:29:01;97622.31;;;13.83;65.50
21300;BME280;10809;49.476;11.016;2022-09-16T03:34:22;97621.56;;;13.81;65.83
21300;BME280;10809;49.476;11.016;2022-09-16T03:37:00;97613.72;;;13.79;65.70
21300;BME280;10809;49.476;11.016;2022-09-16T03:39:33;97615.53;;;13.79;66.13
21300;BME280;10809;49.476;11.016;2022-09-16T03:42:05;97615.63;;;13.77;65.79
21300;BME280;10809;49.476;11.016;2022-09-16T03:44:40;97613.84;;;13.78;66.06
21300;BME280;10809;49.476;11.016;2022-09-16T03:47:10;97611.31;;;13.76;66.10
21300;BME280;10809;49.476;11.016;2022-09-16T03:49:41;97614.94;;;13.75;65.94
21300;BME280;10809;49.476;11.016;2022-09-16T03:52:11;97609.63;;;13.75;65.68
21300;BME280;10809;49.476;11.016;2022-09-16T03:54:41;97600.03;;;13.73;65.66
21300;BME280;10809;49.476;11.016;2022-09-16T03:57:12;97608.03;;;13.73;65.87
21300;BME280;10809;49.476;11.016;2022-09-16T03:59:42;97604.53;;;13.72;66.13
21300;BME280;10809;49.476;11.016;2022-09-16T04:02:12;97602.00;;;13.71;66.06
21300;BME280;10809;49.476;11.016;2022-09-16T04:04:43;97603.81;;;13.70;65.98
21300;BME280;10809;49.476;11.016;2022-09-16T04:07:14;97599.59;;;13.68;65.96
21300;BME280;10809;49.476;11.016;2022-09-16T04:09:44;97606.59;;;13.69;65.96
21300;BME280;10809;49.476;11.016;2022-09-16T04:12:15;97611.91;;;13.69;65.87
21300;BME280;10809;49.476;11.016;2022-09-16T04:14:45;97603.06;;;13.68;66.11
21300;BME280;10809;49.476;11.016;2022-09-16T04:17:15;97608.41;;;13.68;66.07
21300;BME280;10809;49.476;11.016;2022-09-16T04:19:46;97602.38;;;13.66;66.13
21300;BME280;10809;49.476;11.016;2022-09-16T04:22:16;97596.06;;;13.67;66.11
21300;BME280;10809;49.476;11.016;2022-09-16T04:24:46;97598.00;;;13.65;65.99
21300;BME280;10809;49.476;11.016;2022-09-16T04:27:17;97597.16;;;13.65;66.02
21300;BME280;10809;49.476;11.016;2022-09-16T04:29:48;97604.28;;;13.64;65.93
21300;BME280;10809;49.476;11.016;2022-09-16T04:32:19;97607.94;;;13.63;66.01
21300;BME280;10809;49.476;11.016;2022-09-16T04:34:49;97598.34;;;13.61;66.13
21300;BME280;10809;49.476;11.016;2022-09-16T04:37:20;97590.50;;;13.59;65.94
21300;BME280;10809;49.476;11.016;2022-09-16T04:39:50;97592.34;;;13.59;66.27
21300;BME280;10809;49.476;11.016;2022-09-16T04:42:20;97590.63;;;13.58;66.11
21300;BME280;10809;49.476;11.016;2022-09-16T04:44:51;97592.47;;;13.57;65.89
21300;BME280;10809;49.476;11.016;2022-09-16T04:47:21;97586.28;;;13.57;65.68
21300;BME280;10809;49.476;11.016;2022-09-16T04:49:52;97589.06;;;13.55;66.00
21300;BME280;10809;49.476;11.016;2022-09-16T04:52:22;97578.41;;;13.55;65.71
21300;BME280;10809;49.476;11.016;2022-09-16T04:54:52;97563.44;;;13.54;66.37
21300;BME280;10809;49.476;11.016;2022-09-16T04:57:23;97582.19;;;13.53;65.93
21300;BME280;10809;49.476;11.016;2022-09-16T04:59:53;97595.47;;;13.53;65.92
21300;BME280;10809;49.476;11.016;2022-09-16T05:02:24;97597.28;;;13.52;66.36
21300;BME280;10809;49.476;11.016;2022-09-16T05:04:54;97584.84;;;13.53;66.40
21300;BME280;10809;49.476;11.016;2022-09-16T05:07:24;97590.97;;;13.53;65.99
21300;BME280;10809;49.476;11.016;2022-09-16T05:09:56;97591.09;;;13.52;65.96
21300;BME280;10809;49.476;11.016;2022-09-16T05:12:27;97593.66;;;13.53;66.09
21300;BME280;10809;49.476;11.016;2022-09-16T05:15:00;97600.81;;;13.53;66.05
21300;BME280;10809;49.476;11.016;2022-09-16T05:17:31;97597.28;;;13.52;66.24
21300;BME280;10809;49.476;11.016;2022-09-16T05:20:02;97603.56;;;13.51;66.30
21300;BME280;10809;49.476;11.016;2022-09-16T05:22:33;97606.13;;;13.53;66.24
21300;BME280;10809;49.476;11.016;2022-09-16T05:25:03;97621.22;;;13.52;65.97
21300;BME280;10809;49.476;11.016;2022-09-16T05:27:34;97620.38;;;13.52;65.97
21300;BME280;10809;49.476;11.016;2022-09-16T05:30:05;97626.66;;;13.51;65.85
21300;BME280;10809;49.476;11.016;2022-09-16T05:32:35;97626.66;;;13.51;65.79
21300;BME280;10809;49.476;11.016;2022-09-16T05:35:07;97623.25;;;13.49;66.13
21300;BME280;10809;49.476;11.016;2022-09-16T05:37:37;97617.94;;;13.49;66.06
21300;BME280;10809;49.476;11.016;2022-09-16T05:40:08;97612.75;;;13.47;65.96
21300;BME280;10809;49.476;11.016;2022-09-16T05:42:38;97620.72;;;13.47;65.94
21300;BME280;10809;49.476;11.016;2022-09-16T05:45:09;97613.72;;;13.46;66.01
21300;BME280;10809;49.476;11.016;2022-09-16T05:47:39;97618.19;;;13.46;66.21
21300;BME280;10809;49.476;11.016;2022-09-16T05:50:10;97628.00;;;13.45;65.81
21300;BME280;10809;49.476;11.016;2022-09-16T05:52:41;97621.81;;;13.45;65.90
21300;BME280;10809;49.476;11.016;2022-09-16T05:55:12;97626.28;;;13.44;66.18
21300;BME280;10809;49.476;11.016;2022-09-16T05:57:42;97628.94;;;13.44;66.05
21300;BME280;10809;49.476;11.016;2022-09-16T06:00:13;97628.94;;;13.44;66.23
21300;BME280;10809;49.476;11.016;2022-09-16T06:02:43;97621.81;;;13.45;66.04
21300;BME280;10809;49.476;11.016;2022-09-16T06:05:15;97628.13;;;13.44;66.10
21300;BME280;10809;49.476;11.016;2022-09-16T06:07:45;97630.66;;;13.45;66.23
21300;BME280;10809;49.476;11.016;2022-09-16T06:10:16;97632.47;;;13.45;66.33
21300;BME280;10809;49.476;11.016;2022-09-16T06:12:47;97635.97;;;13.45;66.06
21300;BME280;10809;49.476;11.016;2022-09-16T06:15:18;97634.13;;;13.46;66.00
21300;BME280;10809;49.476;11.016;2022-09-16T06:17:48;97632.34;;;13.46;65.89
21300;BME280;10809;49.476;11.016;2022-09-16T06:20:18;97636.69;;;13.47;66.00
21300;BME280;10809;49.476;11.016;2022-09-16T06:22:49;97631.25;;;13.49;66.02
21300;BME280;10809;49.476;11.016;2022-09-16T06:25:19;97628.69;;;13.47;66.25
21300;BME280;10809;49.476;11.016;2022-09-16T06:27:50;97623.13;;;13.50;66.10
21300;BME280;10809;49.476;11.016;2022-09-16T06:30:20;97618.69;;;13.51;65.95
21300;BME280;10809;49.476;11.016;2022-09-16T06:32:51;97625.69;;;13.52;65.77
21300;BME280;10809;49.476;11.016;2022-09-16T06:35:21;97616.88;;;13.51;66.00
21300;BME280;10809;49.476;11.016;2022-09-16T06:37:53;97621.22;;;13.52;65.86
21300;BME280;10809;49.476;11.016;2022-09-16T06:40:23;97622.06;;;13.53;65.43
21300;BME280;10809;49.476;11.016;2022-09-16T06:42:54;97616.88;;;13.51;65.98
21300;BME280;10809;49.476;11.016;2022-09-16T06:45:24;97619.53;;;13.51;65.82
21300;BME280;10809;49.476;11.016;2022-09-16T06:47:58;97620.47;;;13.50;65.22
21300;BME280;10809;49.476;11.016;2022-09-16T06:50:28;97615.16;;;13.50;65.68
21300;BME280;10809;49.476;11.016;2022-09-16T06:52:58;97616.13;;;13.49;65.58
21300;BME280;10809;49.476;11.016;2022-09-16T06:55:29;97620.47;;;13.50;65.43
21300;BME280;10809;49.476;11.016;2022-09-16T06:58:00;97620.59;;;13.49;65.00
21300;BME280;10809;49.476;11.016;2022-09-16T07:00:30;97617.13;;;13.48;65.20
21300;BME280;10809;49.476;11.016;2022-09-16T07:03:01;97618.91;;;13.48;65.33
21300;BME280;10809;49.476;11.016;2022-09-16T07:05:31;97618.91;;;13.48;65.26
21300;BME280;10809;49.476;11.016;2022-09-16T07:08:01;97625.09;;;13.48;65.24
21300;BME280;10809;49.476;11.016;2022-09-16T07:10:32;97624.97;;;13.50;65.21
21300;BME280;10809;49.476;11.016;2022-09-16T07:13:02;97628.47;;;13.50;65.25
21300;BME280;10809;49.476;11.016;2022-09-16T07:15:35;97634.50;;;13.52;64.98
21300;BME280;10809;49.476;11.016;2022-09-16T07:18:05;97622.06;;;13.53;64.99
21300;BME280;10809;49.476;11.016;2022-09-16T07:20:35;97631.84;;;13.52;64.85
21300;BME280;10809;49.476;11.016;2022-09-16T07:23:06;97628.22;;;13.53;65.15
21300;BME280;10809;49.476;11.016;2022-09-16T07:25:40;97629.94;;;13.54;64.78
21300;BME280;10809;49.476;11.016;2022-09-16T07:28:11;97621.97;;;13.54;64.56
21300;BME280;10809;49.476;11.016;2022-09-16T07:30:41;97621.09;;;13.54;64.64
21300;BME280;10809;49.476;11.016;2022-09-16T07:33:12;97626.28;;;13.55;64.51
21300;BME280;10809;49.476;11.016;2022-09-16T07:35:42;97625.31;;;13.56;64.68
21300;BME280;10809;49.476;11.016;2022-09-16T07:38:12;97618.06;;;13.58;64.65
21300;BME280;10809;49.476;11.016;2022-09-16T07:40:43;97627.75;;;13.59;64.59
21300;BME280;10809;49.476;11.016;2022-09-16T07:43:13;97616.16;;;13.60;64.60
21300;BME280;10809;49.476;11.016;2022-09-16T07:45:43;97616.97;;;13.61;64.35
21300;BME280;10809;49.476;11.016;2022-09-16T07:48:14;97624.84;;;13.62;64.34
21300;BME280;10809;49.476;11.016;2022-09-16T07:50:53;97622.91;;;13.64;64.46
21300;BME280;10809;49.476;11.016;2022-09-16T07:53:24;97624.47;;;13.67;64.90
21300;BME280;10809;49.476;11.016;2022-09-16T07:56:03;97621.56;;;13.70;64.45
21300;BME280;10809;49.476;11.016;2022-09-16T07:58:34;97631.84;;;13.74;64.56
21300;BME280;10809;49.476;11.016;2022-09-16T08:01:05;97628.00;;;13.78;64.51
21300;BME280;10809;49.476;11.016;2022-09-16T08:03:38;97628.69;;;13.80;64.38
21300;BME280;10809;49.476;11.016;2022-09-16T08:06:11;97619.66;;;13.83;64.01
21300;BME280;10809;49.476;11.016;2022-09-16T08:08:42;97628.22;;;13.86;63.80
21300;BME280;10809;49.476;11.016;2022-09-16T08:11:14;97628.94;;;13.88;63.86
21300;BME280;10809;49.476;11.016;2022-09-16T08:13:44;97635.97;;;13.89;63.66
21300;BME280;10809;49.476;11.016;2022-09-16T08:16:17;97627.03;;;13.90;63.48
21300;BME280;10809;49.476;11.016;2022-09-16T08:18:49;97632.34;;;13.90;63.16
21300;BME280;10809;49.476;11.016;2022-09-16T08:21:22;97640.34;;;13.90;63.15
21300;BME280;10809;49.476;11.016;2022-09-16T08:23:53;97635.97;;;13.89;63.01
21300;BME280;10809;49.476;11.016;2022-09-16T08:30:18;97635.13;;;13.89;63.37
21300;BME280;10809;49.476;11.016;2022-09-16T08:32:55;97630.75;;;13.88;63.26
21300;BME280;10809;49.476;11.016;2022-09-16T08:35:25;97641.41;;;13.88;62.61
21300;BME280;10809;49.476;11.016;2022-09-16T08:37:56;97637.06;;;13.87;62.62
21300;BME280;10809;49.476;11.016;2022-09-16T08:40:30;97638.97;;;13.85;62.95
21300;BME280;10809;49.476;11.016;2022-09-16T08:43:13;97637.19;;;13.85;62.79
21300;BME280;10809;49.476;11.016;2022-09-16T08:45:54;97638.97;;;13.85;62.76
21300;BME280;10809;49.476;11.016;2022-09-16T08:51:08;97639.84;;;13.85;63.17
21300;BME280;10809;49.476;11.016;2022-09-16T08:53:51;97633.53;;;13.86;62.86
21300;BME280;10809;49.476;11.016;2022-09-16T08:56:24;97644.06;;;13.88;62.64
21300;BME280;10809;49.476;11.016;2022-09-16T08:58:59;97640.56;;;13.87;62.65
21300;BME280;10809;49.476;11.016;2022-09-16T09:01:34;97640.44;;;13.89;62.74
21300;BME280;10809;49.476;11.016;2022-09-16T09:04:05;97639.59;;;13.88;62.49
21300;BME280;10809;49.476;11.016;2022-09-16T09:07:10;97635.13;;;13.89;62.67
21300;BME280;10809;49.476;11.016;2022-09-16T09:12:51;97638.50;;;13.91;62.45
21300;BME280;10809;49.476;11.016;2022-09-16T09:15:36;97635.97;;;13.89;62.22
21300;BME280;10809;49.476;11.016;2022-09-16T09:18:15;97643.13;;;13.89;62.09
21300;BME280;10809;49.476;11.016;2022-09-16T09:21:12;97643.94;;;13.89;62.45
21300;BME280;10809;49.476;11.016;2022-09-16T09:24:11;97647.34;;;13.91;62.49
21300;BME280;10809;49.476;11.016;2022-09-16T09:26:53;97642.75;;;13.93;62.62
21300;BME280;10809;49.476;11.016;2022-09-16T09:32:46;97641.41;;;13.99;62.87
21300;BME280;10809;49.476;11.016;2022-09-16T09:41:02;97637.19;;;14.07;62.70
21300;BME280;10809;49.476;11.016;2022-09-16T09:43:45;97632.56;;;14.09;62.43
21300;BME280;10809;49.476;11.016;2022-09-16T09:46:27;97636.81;;;14.12;62.52
21300;BME280;10809;49.476;11.016;2022-09-16T09:49:12;97639.34;;;14.13;62.21
21300;BME280;10809;49.476;11.016;2022-09-16T09:51:50;97637.38;;;14.15;61.80
21300;BME280;10809;49.476;11.016;2022-09-16T09:54:26;97640.91;;;14.16;61.91
21300;BME280;10809;49.476;11.016;2022-09-16T09:57:02;97628.44;;;14.16;61.96
21300;BME280;10809;49.476;11.016;2022-09-16T10:00:03;97634.47;;;14.18;62.05
21300;BME280;10809;49.476;11.016;2022-09-16T10:02:44;97632.41;;;14.22;61.93
21300;BME280;10809;49.476;11.016;2022-09-16T10:05:24;97625.16;;;14.24;62.18
21300;BME280;10809;49.476;11.016;2022-09-16T10:07:58;97632.78;;;14.28;61.35
21300;BME280;10809;49.476;11.016;2022-09-16T10:10:32;97633.22;;;14.33;61.40
21300;BME280;10809;49.476;11.016;2022-09-16T10:13:10;97632.03;;;14.37;60.89
21300;BME280;10809;49.476;11.016;2022-09-16T10:15:42;97621.13;;;14.40;60.61
21300;BME280;10809;49.476;11.016;2022-09-16T10:18:33;97622.59;;;14.44;61.12
21300;BME280;10809;49.476;11.016;2022-09-16T10:21:04;97617.88;;;14.48;60.48
21300;BME280;10809;49.476;11.016;2022-09-16T10:23:36;97624.63;;;14.52;60.41
21300;BME280;10809;49.476;11.016;2022-09-16T10:26:25;97616.50;;;14.53;60.61
21300;BME280;10809;49.476;11.016;2022-09-16T10:28:59;97615.28;;;14.57;60.74
21300;BME280;10809;49.476;11.016;2022-09-16T10:31:39;97613.06;;;14.62;61.04
21300;BME280;10809;49.476;11.016;2022-09-16T10:34:32;97605.56;;;14.67;60.85
21300;BME280;10809;49.476;11.016;2022-09-16T10:39:38;97603.81;;;14.77;59.98
21300;BME280;10809;49.476;11.016;2022-09-16T10:42:18;97600.88;;;14.81;60.14
21300;BME280;10809;49.476;11.016;2022-09-16T10:44:50;97601.47;;;14.84;59.89
21300;BME280;10809;49.476;11.016;2022-09-16T10:47:24;97605.69;;;14.87;59.98
21300;BME280;10809;49.476;11.016;2022-09-16T10:49:58;97603.75;;;14.89;59.21
21300;BME280;10809;49.476;11.016;2022-09-16T10:52:42;97603.50;;;14.92;59.70
21300;BME280;10809;49.476;11.016;2022-09-16T10:55:32;97610.50;;;14.93;59.50
21300;BME280;10809;49.476;11.016;2022-09-16T10:58:15;97610.63;;;14.91;59.18
21300;BME280;10809;49.476;11.016;2022-09-16T11:00:56;97605.44;;;14.90;58.77
21300;BME280;10809;49.476;11.016;2022-09-16T11:17:30;97601.78;;;14.70;59.67
21300;BME280;10809;49.476;11.016;2022-09-16T11:23:12;97599.38;;;14.67;59.25
21300;BME280;10809;49.476;11.016;2022-09-16T11:25:55;97611.88;;;14.66;59.25
21300;BME280;10809;49.476;11.016;2022-09-16T11:28:49;97599.63;;;14.64;59.75
21300;BME280;10809;49.476;11.016;2022-09-16T11:42:41;97603.38;;;14.73;59.47
21300;BME280;10809;49.476;11.016;2022-09-16T11:48:40;97606.09;;;14.82;59.50
21300;BME280;10809;49.476;11.016;2022-09-16T11:51:45;97607.41;;;14.88;59.29
21300;BME280;10809;49.476;11.016;2022-09-16T11:54:48;97607.03;;;14.92;58.98
21300;BME280;10809;49.476;11.016;2022-09-16T11:57:28;97600.31;;;14.98;58.85
21300;BME280;10809;49.476;11.016;2022-09-16T12:00:12;97593.50;;;15.05;59.53
21300;BME280;10809;49.476;11.016;2022-09-16T12:02:57;97595.38;;;15.14;59.55
21300;BME280;10809;49.476;11.016;2022-09-16T12:05:42;97592.06;;;15.21;59.01
21300;BME280;10809;49.476;11.016;2022-09-16T12:08:22;97574.41;;;15.30;58.83
21300;BME280;10809;49.476;11.016;2022-09-16T12:13:58;97574.16;;;15.53;59.05
21300;BME280;10809;49.476;11.016;2022-09-16T12:16:55;97579.25;;;15.66;58.60
21300;BME280;10809;49.476;11.016;2022-09-16T12:19:32;97570.44;;;15.75;58.59
21300;BME280;10809;49.476;11.016;2022-09-16T12:22:08;97565.28;;;15.83;57.70
21300;BME280;10809;49.476;11.016;2022-09-16T12:24:48;97559.97;;;15.92;58.23
21300;BME280;10809;49.476;11.016;2022-09-16T12:30:11;97552.13;;;16.10;58.08
21300;BME280;10809;49.476;11.016;2022-09-16T12:32:58;97557.91;;;16.15;57.81
21300;BME280;10809;49.476;11.016;2022-09-16T12:35:33;97549.75;;;16.16;57.08
21300;BME280;10809;49.476;11.016;2022-09-16T12:38:15;97549.03;;;16.14;56.81
21300;BME280;10809;49.476;11.016;2022-09-16T12:58:15;97536.34;;;15.88;57.51
21300;BME280;10809;49.476;11.016;2022-09-16T13:00:59;97541.69;;;15.88;57.46
21300;BME280;10809;49.476;11.016;2022-09-16T13:03:39;97526.34;;;15.90;57.87
21300;BME280;10809;49.476;11.016;2022-09-16T13:06:39;97522.19;;;15.97;58.00
21300;BME280;10809;49.476;11.016;2022-09-16T13:09:29;97516.00;;;16.06;57.80
21300;BME280;10809;49.476;11.016;2022-09-16T13:12:24;97512.66;;;16.13;57.83
21300;BME280;10809;49.476;11.016;2022-09-16T13:15:00;97515.47;;;16.21;57.45
21300;BME280;10809;49.476;11.016;2022-09-16T13:17:36;97515.88;;;16.26;56.77
21300;BME280;10809;49.476;11.016;2022-09-16T13:25:57;97507.63;;;16.39;56.98
21300;BME280;10809;49.476;11.016;2022-09-16T13:39:03;97511.13;;;16.68;56.08
21300;BME280;10809;49.476;11.016;2022-09-16T13:41:46;97514.22;;;16.73;56.13
21300;BME280;10809;49.476;11.016;2022-09-16T13:49:46;97522.25;;;16.73;55.75
21300;BME280;10809;49.476;11.016;2022-09-16T13:52:30;97526.19;;;16.69;55.83
21300;BME280;10809;49.476;11.016;2022-09-16T13:55:05;97521.25;;;16.65;55.73
21300;BME280;10809;49.476;11.016;2022-09-16T13:57:54;97525.78;;;16.55;56.07
21300;BME280;10809;49.476;11.016;2022-09-16T14:00:37;97520.84;;;16.40;56.24
21300;BME280;10809;49.476;11.016;2022-09-16T14:03:52;97520.53;;;16.24;56.70
21300;BME280;10809;49.476;11.016;2022-09-16T14:06:59;97531.03;;;16.07;57.00
21300;BME280;10809;49.476;11.016;2022-09-16T14:15:33;97520.38;;;15.58;57.91
21300;BME280;10809;49.476;11.016;2022-09-16T14:18:05;97527.63;;;15.46;58.59
21300;BME280;10809;49.476;11.016;2022-09-16T14:20:36;97528.53;;;15.36;58.96
21300;BME280;10809;49.476;11.016;2022-09-16T14:23:17;97518.94;;;15.24;58.60
21300;BME280;10809;49.476;11.016;2022-09-16T14:25:47;97540.22;;;15.14;59.16
21300;BME280;10809;49.476;11.016;2022-09-16T14:28:19;97542.72;;;15.06;59.76
21300;BME280;10809;49.476;11.016;2022-09-16T14:30:55;97539.97;;;14.97;59.37
21300;BME280;10809;49.476;11.016;2022-09-16T14:33:29;97534.31;;;14.90;60.11
21300;BME280;10809;49.476;11.016;2022-09-16T14:36:17;97524.91;;;14.86;60.67
21300;BME280;10809;49.476;11.016;2022-09-16T14:38:53;97524.78;;;14.88;61.48
21300;BME280;10809;49.476;11.016;2022-09-16T14:41:46;97520.88;;;14.92;61.34
21300;BME280;10809;49.476;11.016;2022-09-16T14:44:25;97522.06;;;14.99;61.72
21300;BME280;10809;49.476;11.016;2022-09-16T14:47:01;97522.22;;;15.07;61.86
21300;BME280;10809;49.476;11.016;2022-09-16T14:49:35;97512.84;;;15.12;62.16
21300;BME280;10809;49.476;11.016;2022-09-16T14:52:17;97522.13;;;15.18;61.50
21300;BME280;10809;49.476;11.016;2022-09-16T14:54:49;97515.56;;;15.22;61.54
21300;BME280;10809;49.476;11.016;2022-09-16T14:57:22;97509.00;;;15.26;61.79
21300;BME280;10809;49.476;11.016;2022-09-16T14:59:59;97512.06;;;15.31;61.64
21300;BME280;10809;49.476;11.016;2022-09-16T15:02:42;97501.00;;;15.35;60.94
21300;BME280;10809;49.476;11.016;2022-09-16T15:05:22;97497.28;;;15.38;61.26
21300;BME280;10809;49.476;11.016;2022-09-16T15:10:38;97505.38;;;15.36;60.86
21300;BME280;10809;49.476;11.016;2022-09-16T15:13:10;97511.81;;;15.34;61.21
21300;BME280;10809;49.476;11.016;2022-09-16T15:15:46;97503.25;;;15.30;61.26
21300;BME280;10809;49.476;11.016;2022-09-16T15:18:29;97508.00;;;15.27;60.77
21300;BME280;10809;49.476;11.016;2022-09-16T15:23:38;97502.34;;;15.20;60.72
21300;BME280;10809;49.476;11.016;2022-09-16T15:26:19;97516.09;;;15.16;60.79
21300;BME280;10809;49.476;11.016;2022-09-16T15:29:00;97511.00;;;15.13;60.83
21300;BME280;10809;49.476;11.016;2022-09-16T15:31:39;97505.94;;;15.10;61.19
21300;BME280;10809;49.476;11.016;2022-09-16T15:36:57;97507.06;;;15.07;60.85
21300;BME280;10809;49.476;11.016;2022-09-16T15:42:11;97508.31;;;15.03;61.17
21300;BME280;10809;49.476;11.016;2022-09-16T15:44:47;97503.00;;;15.03;61.19
21300;BME280;10809;49.476;11.016;2022-09-16T15:47:22;97507.47;;;15.03;61.69
21300;BME280;10809;49.476;11.016;2022-09-16T15:50:15;97509.16;;;15.04;61.32
21300;BME280;10809;49.476;11.016;2022-09-16T15:53:07;97511.81;;;15.04;60.89
21300;BME280;10809;49.476;11.016;2022-09-16T15:55:50;97510.00;;;15.04;60.68
21300;BME280;10809;49.476;11.016;2022-09-16T16:04:04;97514.06;;;14.99;60.49